sensor_id;sensor_type;location;lat;lon;timestamp;pressure;altitude;pressure_sealevel;temperature;humidity
54248;BME280;40161;39.768;2.722;2024-02-21T00:00:52;102374.00;;;8.83;83.56
54248;BME280;40161;39.768;2.722;2024-02-21T00:03:18;102431.16;;;9.46;83.27
54248;BME280;40161;39.768;2.722;2024-02-21T00:05:43;102418.00;;;9.66;82.45
54248;BME280;40161;39.768;2.722;2024-02-21T00:08:09;102417.47;;;9.55;82.44
54248;BME280;40161;39.768;2.722;2024-02-21T00:10:35;102412.22;;;8.96;85.57
54248;BME280;40161;39.768;2.722;2024-02-21T00:13:01;102385.03;;;8.69;86.89
54248;BME280;40161;39.768;2.722;2024-02-21T00:15:26;102425.41;;;8.94;88.60
54248;BME280;40161;39.768;2.722;2024-02-21T00:17:52;102395.81;;;8.74;88.61
54248;BME280;40161;39.768;2.722;2024-02-21T00:20:18;102396.13;;;8.64;88.94
54248;BME280;40161;39.768;2.722;2024-02-21T00:22:44;102397.91;;;8.68;88.36
54248;BME280;40161;39.768;2.722;2024-02-21T00:25:10;102381.31;;;8.65;87.75
54248;BME280;40161;39.768;2.722;2024-02-21T00:27:35;102368.66;;;8.77;87.90
54248;BME280;40161;39.768;2.722;2024-02-21T00:30:02;102386.88;;;8.82;87.04
54248;BME280;40161;39.768;2.722;2024-02-21T00:32:27;102401.19;;;8.79;89.17
54248;BME280;40161;39.768;2.722;2024-02-21T00:34:53;102412.13;;;8.79;89.53
54248;BME280;40161;39.768;2.722;2024-02-21T00:37:18;102395.88;;;8.83;89.56
54248;BME280;40161;39.768;2.722;2024-02-21T00:39:44;102405.94;;;8.65;90.56
54248;BME280;40161;39.768;2.722;2024-02-21T00:42:10;102369.81;;;8.54;90.19
54248;BME280;40161;39.768;2.722;2024-02-21T00:44:35;102376.03;;;8.77;90.48
54248;BME280;40161;39.768;2.722;2024-02-21T00:47:01;102370.44;;;9.13;88.00
54248;BME280;40161;39.768;2.722;2024-02-21T00:49:27;102331.94;;;8.78;86.67
54248;BME280;40161;39.768;2.722;2024-02-21T00:51:52;102371.06;;;8.79;88.48
54248;BME280;40161;39.768;2.722;2024-02-21T00:54:18;102377.69;;;8.33;92.20
54248;BME280;40161;39.768;2.722;2024-02-21T00:56:44;102398.00;;;8.86;90.77
54248;BME280;40161;39.768;2.722;2024-02-21T00:59:10;102374.75;;;8.74;89.30
54248;BME280;40161;39.768;2.722;2024-02-21T01:01:35;102392.00;;;8.75;90.15
54248;BME280;40161;39.768;2.722;2024-02-21T01:04:01;102378.56;;;8.42;91.00
54248;BME280;40161;39.768;2.722;2024-02-21T01:06:26;102335.78;;;7.88;94.68
54248;BME280;40161;39.768;2.722;2024-02-21T01:08:52;102358.00;;;8.08;95.37
54248;BME280;40161;39.768;2.722;2024-02-21T01:11:17;102322.31;;;7.91;94.90
54248;BME280;40161;39.768;2.722;2024-02-21T01:13:44;102373.72;;;8.39;94.36
54248;BME280;40161;39.768;2.722;2024-02-21T01:16:09;102299.81;;;7.94;94.46
54248;BME280;40161;39.768;2.722;2024-02-21T01:18:37;102363.06;;;8.60;92.25
54248;BME280;40161;39.768;2.722;2024-02-21T01:21:05;102353.53;;;8.35;94.06
54248;BME280;40161;39.768;2.722;2024-02-21T01:23:36;102372.19;;;8.11;95.80
54248;BME280;40161;39.768;2.722;2024-02-21T01:26:03;102365.19;;;8.04;96.06
54248;BME280;40161;39.768;2.722;2024-02-21T01:28:30;102361.19;;;8.24;95.87
54248;BME280;40161;39.768;2.722;2024-02-21T01:30:56;102340.31;;;8.06;94.88
54248;BME280;40161;39.768;2.722;2024-02-21T01:33:22;102361.25;;;8.11;95.92
54248;BME280;40161;39.768;2.722;2024-02-21T01:35:48;102343.88;;;7.93;96.23
54248;BME280;40161;39.768;2.722;2024-02-21T01:38:15;102334.81;;;8.28;94.39
54248;BME280;40161;39.768;2.722;2024-02-21T01:40:40;102364.63;;;8.30;94.03
54248;BME280;40161;39.768;2.722;2024-02-21T01:43:16;102364.84;;;7.83;97.87
54248;BME280;40161;39.768;2.722;2024-02-21T01:45:44;102295.44;;;7.34;100.00
54248;BME280;40161;39.768;2.722;2024-02-21T01:48:12;102314.69;;;7.66;97.57
54248;BME280;40161;39.768;2.722;2024-02-21T01:50:38;102366.50;;;7.57;98.85
54248;BME280;40161;39.768;2.722;2024-02-21T01:53:11;102364.91;;;7.56;100.00
54248;BME280;40161;39.768;2.722;2024-02-21T01:55:46;102361.66;;;7.68;100.00
54248;BME280;40161;39.768;2.722;2024-02-21T01:58:13;102331.03;;;7.43;100.00
54248;BME280;40161;39.768;2.722;2024-02-21T02:00:42;102353.09;;;7.60;100.00
54248;BME280;40161;39.768;2.722;2024-02-21T02:03:10;102326.06;;;7.45;100.00
54248;BME280;40161;39.768;2.722;2024-02-21T02:05:45;102321.38;;;7.59;100.00
54248;BME280;40161;39.768;2.722;2024-02-21T02:08:13;102340.34;;;7.92;97.79
54248;BME280;40161;39.768;2.722;2024-02-21T02:10:40;102342.16;;;7.60;100.00
54248;BME280;40161;39.768;2.722;2024-02-21T02:13:06;102344.91;;;7.47;100.00
54248;BME280;40161;39.768;2.722;2024-02-21T02:15:41;102352.16;;;7.51;100.00
54248;BME280;40161;39.768;2.722;2024-02-21T02:18:08;102300.59;;;7.08;100.00
54248;BME280;40161;39.768;2.722;2024-02-21T02:20:34;102322.81;;;7.43;100.00
54248;BME280;40161;39.768;2.722;2024-02-21T02:25:40;102314.94;;;7.55;99.59
54248;BME280;40161;39.768;2.722;2024-02-21T02:28:06;102272.41;;;7.13;99.83
54248;BME280;40161;39.768;2.722;2024-02-21T02:30:33;102276.75;;;7.14;100.00
54248;BME280;40161;39.768;2.722;2024-02-21T02:33:00;102346.16;;;7.77;100.00
54248;BME280;40161;39.768;2.722;2024-02-21T02:35:25;102317.78;;;7.50;100.00
54248;BME280;40161;39.768;2.722;2024-02-21T02:37:51;102341.75;;;7.90;100.00
54248;BME280;40161;39.768;2.722;2024-02-21T02:40:18;102314.22;;;7.50;97.96
54248;BME280;40161;39.768;2.722;2024-02-21T02:42:43;102305.06;;;7.04;100.00
54248;BME280;40161;39.768;2.722;2024-02-21T02:45:09;102341.88;;;7.21;100.00
54248;BME280;40161;39.768;2.722;2024-02-21T02:47:35;102312.75;;;7.30;100.00
54248;BME280;40161;39.768;2.722;2024-02-21T02:50:01;102342.97;;;7.47;100.00
54248;BME280;40161;39.768;2.722;2024-02-21T02:52:27;102302.53;;;7.22;100.00
54248;BME280;40161;39.768;2.722;2024-02-21T02:54:52;102335.19;;;7.41;100.00
54248;BME280;40161;39.768;2.722;2024-02-21T02:57:20;102305.06;;;7.04;100.00
54248;BME280;40161;39.768;2.722;2024-02-21T02:59:50;102311.44;;;7.00;100.00
54248;BME280;40161;39.768;2.722;2024-02-21T03:02:16;102300.00;;;6.98;100.00
54248;BME280;40161;39.768;2.722;2024-02-21T03:04:42;102267.44;;;6.87;100.00
54248;BME280;40161;39.768;2.722;2024-02-21T03:07:08;102307.63;;;7.65;100.00
54248;BME280;40161;39.768;2.722;2024-02-21T03:09:34;102288.47;;;7.78;99.78
54248;BME280;40161;39.768;2.722;2024-02-21T03:11:59;102271.06;;;7.74;98.67
54248;BME280;40161;39.768;2.722;2024-02-21T03:14:28;102314.28;;;7.95;97.20
54248;BME280;40161;39.768;2.722;2024-02-21T03:16:54;102309.69;;;7.45;100.00
54248;BME280;40161;39.768;2.722;2024-02-21T03:19:20;102307.56;;;7.28;100.00
54248;BME280;40161;39.768;2.722;2024-02-21T03:21:45;102286.88;;;7.13;100.00
54248;BME280;40161;39.768;2.722;2024-02-21T03:24:11;102284.22;;;7.22;100.00
54248;BME280;40161;39.768;2.722;2024-02-21T03:26:37;102278.47;;;6.82;100.00
54248;BME280;40161;39.768;2.722;2024-02-21T03:29:03;102232.75;;;6.47;100.00
54248;BME280;40161;39.768;2.722;2024-02-21T03:31:29;102273.22;;;6.72;100.00
54248;BME280;40161;39.768;2.722;2024-02-21T03:33:55;102244.19;;;6.62;100.00
54248;BME280;40161;39.768;2.722;2024-02-21T03:36:20;102277.75;;;7.04;100.00
54248;BME280;40161;39.768;2.722;2024-02-21T03:38:46;102262.19;;;6.91;100.00
54248;BME280;40161;39.768;2.722;2024-02-21T03:41:13;102251.28;;;6.77;100.00
54248;BME280;40161;39.768;2.722;2024-02-21T03:43:38;102230.34;;;6.59;100.00
54248;BME280;40161;39.768;2.722;2024-02-21T03:46:04;102278.56;;;6.77;100.00
54248;BME280;40161;39.768;2.722;2024-02-21T03:48:30;102223.28;;;6.44;100.00
54248;BME280;40161;39.768;2.722;2024-02-21T03:50:56;102280.09;;;6.97;100.00
54248;BME280;40161;39.768;2.722;2024-02-21T03:53:21;102279.88;;;7.07;100.00
54248;BME280;40161;39.768;2.722;2024-02-21T03:55:47;102283.53;;;7.17;100.00
54248;BME280;40161;39.768;2.722;2024-02-21T03:58:13;102259.38;;;6.96;100.00
54248;BME280;40161;39.768;2.722;2024-02-21T04:00:38;102254.91;;;6.86;100.00
54248;BME280;40161;39.768;2.722;2024-02-21T04:03:04;102291.50;;;7.41;100.00
54248;BME280;40161;39.768;2.722;2024-02-21T04:05:31;102278.47;;;7.60;100.00
54248;BME280;40161;39.768;2.722;2024-02-21T04:07:56;102229.13;;;7.06;100.00
54248;BME280;40161;39.768;2.722;2024-02-21T04:10:22;102262.38;;;7.22;100.00
54248;BME280;40161;39.768;2.722;2024-02-21T04:12:47;102242.88;;;6.87;100.00
54248;BME280;40161;39.768;2.722;2024-02-21T04:15:16;102265.94;;;6.95;100.00
54248;BME280;40161;39.768;2.722;2024-02-21T04:17:41;102269.38;;;7.01;100.00
54248;BME280;40161;39.768;2.722;2024-02-21T04:20:14;102278.28;;;7.06;100.00
54248;BME280;40161;39.768;2.722;2024-02-21T04:22:40;102255.84;;;6.82;100.00
54248;BME280;40161;39.768;2.722;2024-02-21T04:25:06;102288.00;;;6.99;100.00
54248;BME280;40161;39.768;2.722;2024-02-21T04:27:32;102268.44;;;6.64;100.00
54248;BME280;40161;39.768;2.722;2024-02-21T04:29:57;102254.88;;;6.45;100.00
54248;BME280;40161;39.768;2.722;2024-02-21T04:32:23;102239.13;;;6.42;100.00
54248;BME280;40161;39.768;2.722;2024-02-21T04:34:48;102246.84;;;6.54;100.00
54248;BME280;40161;39.768;2.722;2024-02-21T04:37:14;102269.09;;;6.75;100.00
54248;BME280;40161;39.768;2.722;2024-02-21T04:39:40;102223.97;;;6.63;100.00
54248;BME280;40161;39.768;2.722;2024-02-21T04:42:06;102238.31;;;7.24;100.00
54248;BME280;40161;39.768;2.722;2024-02-21T04:44:31;102261.34;;;7.32;100.00
54248;BME280;40161;39.768;2.722;2024-02-21T04:46:57;102243.81;;;6.69;100.00
54248;BME280;40161;39.768;2.722;2024-02-21T04:49:22;102242.16;;;6.40;100.00
54248;BME280;40161;39.768;2.722;2024-02-21T04:51:48;102243.16;;;6.31;100.00
54248;BME280;40161;39.768;2.722;2024-02-21T04:54:13;102224.53;;;6.19;100.00
54248;BME280;40161;39.768;2.722;2024-02-21T04:56:39;102248.84;;;6.48;100.00
54248;BME280;40161;39.768;2.722;2024-02-21T04:59:04;102240.22;;;6.27;100.00
54248;BME280;40161;39.768;2.722;2024-02-21T05:01:30;102273.56;;;6.38;100.00
54248;BME280;40161;39.768;2.722;2024-02-21T05:03:56;102284.25;;;6.34;100.00
54248;BME280;40161;39.768;2.722;2024-02-21T05:06:22;102278.44;;;6.55;100.00
54248;BME280;40161;39.768;2.722;2024-02-21T05:08:47;102266.56;;;6.78;100.00
54248;BME280;40161;39.768;2.722;2024-02-21T05:11:13;102285.53;;;6.83;100.00
54248;BME280;40161;39.768;2.722;2024-02-21T05:13:38;102293.72;;;6.70;100.00
54248;BME280;40161;39.768;2.722;2024-02-21T05:16:05;102294.03;;;6.68;100.00
54248;BME280;40161;39.768;2.722;2024-02-21T05:18:31;102263.22;;;6.81;100.00
54248;BME280;40161;39.768;2.722;2024-02-21T05:20:56;102284.44;;;6.98;100.00
54248;BME280;40161;39.768;2.722;2024-02-21T05:23:22;102283.59;;;6.70;100.00
54248;BME280;40161;39.768;2.722;2024-02-21T05:25:47;102262.91;;;6.23;100.00
54248;BME280;40161;39.768;2.722;2024-02-21T05:28:13;102306.91;;;6.49;100.00
54248;BME280;40161;39.768;2.722;2024-02-21T05:30:38;102288.25;;;6.56;100.00
54248;BME280;40161;39.768;2.722;2024-02-21T05:33:07;102285.94;;;6.77;100.00
54248;BME280;40161;39.768;2.722;2024-02-21T05:35:34;102306.06;;;7.08;100.00
54248;BME280;40161;39.768;2.722;2024-02-21T05:37:59;102317.63;;;7.19;100.00
54248;BME280;40161;39.768;2.722;2024-02-21T05:40:25;102301.19;;;6.92;100.00
54248;BME280;40161;39.768;2.722;2024-02-21T05:42:51;102299.59;;;6.77;100.00
54248;BME280;40161;39.768;2.722;2024-02-21T05:45:17;102317.97;;;6.57;100.00
54248;BME280;40161;39.768;2.722;2024-02-21T05:47:44;102313.94;;;6.36;100.00
54248;BME280;40161;39.768;2.722;2024-02-21T05:50:10;102314.75;;;6.36;100.00
54248;BME280;40161;39.768;2.722;2024-02-21T05:52:35;102281.94;;;6.09;100.00
54248;BME280;40161;39.768;2.722;2024-02-21T05:55:01;102335.28;;;6.34;100.00
54248;BME280;40161;39.768;2.722;2024-02-21T05:57:27;102293.59;;;6.14;100.00
54248;BME280;40161;39.768;2.722;2024-02-21T05:59:52;102327.25;;;6.56;100.00
54248;BME280;40161;39.768;2.722;2024-02-21T06:02:18;102298.56;;;6.26;100.00
54248;BME280;40161;39.768;2.722;2024-02-21T06:04:43;102328.03;;;6.57;100.00
54248;BME280;40161;39.768;2.722;2024-02-21T06:07:09;102345.50;;;6.42;100.00
54248;BME280;40161;39.768;2.722;2024-02-21T06:09:36;102337.38;;;6.70;100.00
54248;BME280;40161;39.768;2.722;2024-02-21T06:12:02;102366.09;;;6.81;100.00
54248;BME280;40161;39.768;2.722;2024-02-21T06:14:28;102365.91;;;6.45;100.00
54248;BME280;40161;39.768;2.722;2024-02-21T06:16:53;102328.69;;;6.02;100.00
54248;BME280;40161;39.768;2.722;2024-02-21T06:19:19;102344.97;;;6.40;100.00
54248;BME280;40161;39.768;2.722;2024-02-21T06:21:45;102304.22;;;6.16;100.00
54248;BME280;40161;39.768;2.722;2024-02-21T06:24:10;102365.19;;;6.72;100.00
54248;BME280;40161;39.768;2.722;2024-02-21T06:26:37;102324.69;;;6.46;100.00
54248;BME280;40161;39.768;2.722;2024-02-21T06:29:03;102344.53;;;6.65;100.00
54248;BME280;40161;39.768;2.722;2024-02-21T06:31:28;102378.78;;;6.58;100.00
54248;BME280;40161;39.768;2.722;2024-02-21T06:33:54;102313.44;;;6.34;100.00
54248;BME280;40161;39.768;2.722;2024-02-21T06:36:20;102279.13;;;6.47;100.00
54248;BME280;40161;39.768;2.722;2024-02-21T06:38:45;102353.38;;;6.90;100.00
54248;BME280;40161;39.768;2.722;2024-02-21T06:41:17;102350.75;;;6.85;100.00
54248;BME280;40161;39.768;2.722;2024-02-21T06:43:45;102375.81;;;7.01;100.00
54248;BME280;40161;39.768;2.722;2024-02-21T06:46:11;102362.56;;;6.80;100.00
54248;BME280;40161;39.768;2.722;2024-02-21T06:48:37;102349.69;;;6.67;100.00
54248;BME280;40161;39.768;2.722;2024-02-21T06:51:03;102363.66;;;6.79;100.00
54248;BME280;40161;39.768;2.722;2024-02-21T06:53:29;102313.34;;;6.39;100.00
54248;BME280;40161;39.768;2.722;2024-02-21T06:55:55;102374.44;;;7.03;100.00
54248;BME280;40161;39.768;2.722;2024-02-21T06:58:20;102358.44;;;7.10;100.00
54248;BME280;40161;39.768;2.722;2024-02-21T07:00:46;102376.75;;;7.37;99.65
54248;BME280;40161;39.768;2.722;2024-02-21T07:03:12;102366.13;;;7.22;100.00
54248;BME280;40161;39.768;2.722;2024-02-21T07:05:37;102368.25;;;7.25;100.00
54248;BME280;40161;39.768;2.722;2024-02-21T07:08:03;102316.69;;;6.96;100.00
54248;BME280;40161;39.768;2.722;2024-02-21T07:10:29;102355.13;;;7.13;100.00
54248;BME280;40161;39.768;2.722;2024-02-21T07:12:55;102363.91;;;7.10;100.00
54248;BME280;40161;39.768;2.722;2024-02-21T07:15:21;102360.25;;;7.15;100.00
54248;BME280;40161;39.768;2.722;2024-02-21T07:17:46;102329.34;;;7.06;100.00
54248;BME280;40161;39.768;2.722;2024-02-21T07:20:12;102339.75;;;7.04;100.00
54248;BME280;40161;39.768;2.722;2024-02-21T07:22:37;102325.53;;;6.60;100.00
54248;BME280;40161;39.768;2.722;2024-02-21T07:25:03;102343.44;;;6.34;100.00
54248;BME280;40161;39.768;2.722;2024-02-21T07:27:29;102350.66;;;6.44;100.00
54248;BME280;40161;39.768;2.722;2024-02-21T07:29:57;102341.47;;;6.53;100.00
54248;BME280;40161;39.768;2.722;2024-02-21T07:32:22;102362.63;;;6.61;100.00
54248;BME280;40161;39.768;2.722;2024-02-21T07:34:48;102362.47;;;6.85;100.00
54248;BME280;40161;39.768;2.722;2024-02-21T07:37:13;102369.16;;;6.60;100.00
54248;BME280;40161;39.768;2.722;2024-02-21T07:39:39;102389.22;;;6.70;100.00
54248;BME280;40161;39.768;2.722;2024-02-21T07:42:05;102380.38;;;7.05;100.00
54248;BME280;40161;39.768;2.722;2024-02-21T07:44:31;102337.09;;;6.85;100.00
54248;BME280;40161;39.768;2.722;2024-02-21T07:46:57;102375.06;;;6.68;100.00
54248;BME280;40161;39.768;2.722;2024-02-21T07:49:24;102385.47;;;6.65;100.00
54248;BME280;40161;39.768;2.722;2024-02-21T07:51:50;102387.75;;;6.91;100.00
54248;BME280;40161;39.768;2.722;2024-02-21T07:54:15;102393.50;;;6.89;100.00
54248;BME280;40161;39.768;2.722;2024-02-21T07:56:41;102354.09;;;6.49;100.00
54248;BME280;40161;39.768;2.722;2024-02-21T07:59:07;102388.63;;;6.73;100.00
54248;BME280;40161;39.768;2.722;2024-02-21T08:01:33;102364.09;;;6.86;100.00
54248;BME280;40161;39.768;2.722;2024-02-21T08:03:58;102371.34;;;6.91;100.00
54248;BME280;40161;39.768;2.722;2024-02-21T08:06:24;102389.00;;;6.99;100.00
54248;BME280;40161;39.768;2.722;2024-02-21T08:08:50;102423.22;;;7.51;100.00
54248;BME280;40161;39.768;2.722;2024-02-21T08:11:16;102420.97;;;7.40;100.00
54248;BME280;40161;39.768;2.722;2024-02-21T08:13:41;102386.16;;;7.45;100.00
54248;BME280;40161;39.768;2.722;2024-02-21T08:16:07;102389.50;;;7.56;100.00
54248;BME280;40161;39.768;2.722;2024-02-21T08:18:32;102406.75;;;7.93;100.00
54248;BME280;40161;39.768;2.722;2024-02-21T08:21:03;102412.69;;;7.58;100.00
54248;BME280;40161;39.768;2.722;2024-02-21T08:23:28;102386.78;;;7.28;100.00
54248;BME280;40161;39.768;2.722;2024-02-21T08:25:54;102421.59;;;7.36;100.00
54248;BME280;40161;39.768;2.722;2024-02-21T08:28:20;102419.56;;;7.42;100.00
54248;BME280;40161;39.768;2.722;2024-02-21T08:30:45;102416.41;;;7.35;100.00
54248;BME280;40161;39.768;2.722;2024-02-21T08:33:15;102420.16;;;7.39;100.00
54248;BME280;40161;39.768;2.722;2024-02-21T08:35:40;102398.69;;;7.46;100.00
54248;BME280;40161;39.768;2.722;2024-02-21T08:38:06;102406.59;;;7.75;100.00
54248;BME280;40161;39.768;2.722;2024-02-21T08:40:31;102405.94;;;8.06;100.00
54248;BME280;40161;39.768;2.722;2024-02-21T08:43:00;102367.59;;;8.20;100.00
54248;BME280;40161;39.768;2.722;2024-02-21T08:45:26;102370.69;;;8.41;100.00
54248;BME280;40161;39.768;2.722;2024-02-21T08:47:51;102391.00;;;8.71;100.00
54248;BME280;40161;39.768;2.722;2024-02-21T08:50:17;102371.75;;;8.85;100.00
54248;BME280;40161;39.768;2.722;2024-02-21T08:52:42;102350.84;;;8.89;98.99
54248;BME280;40161;39.768;2.722;2024-02-21T08:55:08;102339.53;;;8.82;98.60
54248;BME280;40161;39.768;2.722;2024-02-21T08:57:33;102393.09;;;9.36;98.75
54248;BME280;40161;39.768;2.722;2024-02-21T09:00:06;102406.69;;;9.50;98.43
54248;BME280;40161;39.768;2.722;2024-02-21T09:02:41;102374.09;;;9.48;98.53
54248;BME280;40161;39.768;2.722;2024-02-21T09:05:10;102363.97;;;9.58;98.82
54248;BME280;40161;39.768;2.722;2024-02-21T09:07:36;102387.41;;;9.98;98.42
54248;BME280;40161;39.768;2.722;2024-02-21T09:10:01;102405.00;;;10.15;95.55
54248;BME280;40161;39.768;2.722;2024-02-21T09:12:28;102400.22;;;10.29;93.87
54248;BME280;40161;39.768;2.722;2024-02-21T09:14:56;102387.75;;;10.32;92.28
54248;BME280;40161;39.768;2.722;2024-02-21T09:17:21;102385.50;;;10.51;89.02
54248;BME280;40161;39.768;2.722;2024-02-21T09:19:47;102380.47;;;10.71;86.60
54248;BME280;40161;39.768;2.722;2024-02-21T09:22:13;102312.81;;;10.49;84.51
54248;BME280;40161;39.768;2.722;2024-02-21T09:24:39;102321.28;;;10.82;83.45
54248;BME280;40161;39.768;2.722;2024-02-21T09:27:05;102385.34;;;11.41;81.93
54248;BME280;40161;39.768;2.722;2024-02-21T09:29:31;102383.69;;;11.49;79.10
54248;BME280;40161;39.768;2.722;2024-02-21T09:31:59;102390.38;;;11.69;79.03
54248;BME280;40161;39.768;2.722;2024-02-21T09:34:25;102394.97;;;11.86;78.82
54248;BME280;40161;39.768;2.722;2024-02-21T09:36:50;102387.22;;;11.88;78.13
54248;BME280;40161;39.768;2.722;2024-02-21T09:39:16;102362.47;;;11.88;77.17
54248;BME280;40161;39.768;2.722;2024-02-21T09:41:50;102353.94;;;12.02;74.73
54248;BME280;40161;39.768;2.722;2024-02-21T09:44:21;102389.78;;;12.47;75.09
54248;BME280;40161;39.768;2.722;2024-02-21T09:49:31;102381.16;;;12.70;74.17
54248;BME280;40161;39.768;2.722;2024-02-21T09:52:04;102373.94;;;12.90;70.45
54248;BME280;40161;39.768;2.722;2024-02-21T09:54:30;102406.25;;;13.14;69.54
54248;BME280;40161;39.768;2.722;2024-02-21T09:57:00;102389.41;;;13.27;68.49
54248;BME280;40161;39.768;2.722;2024-02-21T09:59:27;102352.88;;;13.18;68.49
54248;BME280;40161;39.768;2.722;2024-02-21T10:01:53;102357.25;;;13.44;66.52
54248;BME280;40161;39.768;2.722;2024-02-21T10:04:20;102373.53;;;13.73;64.55
54248;BME280;40161;39.768;2.722;2024-02-21T10:06:46;102333.19;;;13.69;63.33
54248;BME280;40161;39.768;2.722;2024-02-21T10:09:27;102340.84;;;13.88;63.76
54248;BME280;40161;39.768;2.722;2024-02-21T10:11:54;102330.00;;;13.95;62.67
54248;BME280;40161;39.768;2.722;2024-02-21T10:14:20;102344.41;;;14.16;60.67
54248;BME280;40161;39.768;2.722;2024-02-21T10:16:57;102367.09;;;14.50;56.52
54248;BME280;40161;39.768;2.722;2024-02-21T10:19:26;102328.19;;;14.43;57.41
54248;BME280;40161;39.768;2.722;2024-02-21T10:22:02;102350.88;;;14.64;57.92
54248;BME280;40161;39.768;2.722;2024-02-21T10:24:34;102365.34;;;14.74;56.12
54248;BME280;40161;39.768;2.722;2024-02-21T10:27:04;102355.75;;;14.83;56.12
54248;BME280;40161;39.768;2.722;2024-02-21T10:29:37;102355.09;;;14.90;54.96
54248;BME280;40161;39.768;2.722;2024-02-21T10:32:06;102365.72;;;15.04;53.08
54248;BME280;40161;39.768;2.722;2024-02-21T10:34:36;102360.00;;;15.12;52.14
54248;BME280;40161;39.768;2.722;2024-02-21T10:37:03;102368.84;;;15.18;52.55
54248;BME280;40161;39.768;2.722;2024-02-21T10:39:33;102286.97;;;14.82;52.83
54248;BME280;40161;39.768;2.722;2024-02-21T10:42:01;102326.91;;;15.16;52.46
54248;BME280;40161;39.768;2.722;2024-02-21T10:44:37;102362.81;;;15.48;52.72
54248;BME280;40161;39.768;2.722;2024-02-21T10:47:12;102334.72;;;15.46;52.45
54248;BME280;40161;39.768;2.722;2024-02-21T10:49:44;102345.72;;;15.61;51.97
54248;BME280;40161;39.768;2.722;2024-02-21T10:57:08;102326.63;;;15.72;49.73
54248;BME280;40161;39.768;2.722;2024-02-21T10:59:37;102337.94;;;15.83;50.50
54248;BME280;40161;39.768;2.722;2024-02-21T11:02:05;102321.75;;;15.85;49.97
54248;BME280;40161;39.768;2.722;2024-02-21T11:04:31;102295.03;;;15.73;50.14
54248;BME280;40161;39.768;2.722;2024-02-21T11:07:05;102304.13;;;15.93;50.73
54248;BME280;40161;39.768;2.722;2024-02-21T11:09:31;102289.19;;;15.78;51.67
54248;BME280;40161;39.768;2.722;2024-02-21T11:12:05;102310.47;;;15.94;51.04
54248;BME280;40161;39.768;2.722;2024-02-21T11:14:31;102319.81;;;16.05;50.42
54248;BME280;40161;39.768;2.722;2024-02-21T11:17:15;102294.38;;;15.99;48.85
54248;BME280;40161;39.768;2.722;2024-02-21T11:19:41;102293.09;;;16.16;49.64
54248;BME280;40161;39.768;2.722;2024-02-21T11:22:17;102262.50;;;16.09;49.50
54248;BME280;40161;39.768;2.722;2024-02-21T11:24:43;102267.78;;;16.37;48.24
54248;BME280;40161;39.768;2.722;2024-02-21T11:27:16;102300.66;;;16.61;48.97
54248;BME280;40161;39.768;2.722;2024-02-21T11:29:49;102284.78;;;16.81;47.81
54248;BME280;40161;39.768;2.722;2024-02-21T11:32:20;102258.28;;;16.61;48.32
54248;BME280;40161;39.768;2.722;2024-02-21T11:34:59;102246.13;;;16.66;48.08
54248;BME280;40161;39.768;2.722;2024-02-21T11:37:27;102261.97;;;16.69;50.73
54248;BME280;40161;39.768;2.722;2024-02-21T11:39:57;102257.88;;;16.82;52.37
54248;BME280;40161;39.768;2.722;2024-02-21T11:42:25;102245.69;;;16.87;53.09
54248;BME280;40161;39.768;2.722;2024-02-21T11:44:50;102207.06;;;16.74;58.59
54248;BME280;40161;39.768;2.722;2024-02-21T11:47:16;102240.53;;;16.89;59.37
54248;BME280;40161;39.768;2.722;2024-02-21T11:49:47;102263.31;;;17.01;60.09
54248;BME280;40161;39.768;2.722;2024-02-21T11:52:22;102248.34;;;17.06;61.49
54248;BME280;40161;39.768;2.722;2024-02-21T11:54:50;102251.44;;;17.27;59.93
54248;BME280;40161;39.768;2.722;2024-02-21T11:57:17;102247.88;;;17.30;59.23
54248;BME280;40161;39.768;2.722;2024-02-21T11:59:44;102235.75;;;17.12;58.98
54248;BME280;40161;39.768;2.722;2024-02-21T12:02:11;102265.09;;;17.43;59.65
54248;BME280;40161;39.768;2.722;2024-02-21T12:04:37;102272.78;;;17.53;58.97
54248;BME280;40161;39.768;2.722;2024-02-21T12:07:02;102252.88;;;17.48;59.97
54248;BME280;40161;39.768;2.722;2024-02-21T12:09:31;102259.91;;;17.38;61.13
54248;BME280;40161;39.768;2.722;2024-02-21T12:12:00;102272.84;;;17.30;63.84
54248;BME280;40161;39.768;2.722;2024-02-21T12:14:28;102263.28;;;16.98;66.22
54248;BME280;40161;39.768;2.722;2024-02-21T12:16:54;102263.22;;;17.21;64.11
54248;BME280;40161;39.768;2.722;2024-02-21T12:19:20;102227.66;;;17.00;62.18
54248;BME280;40161;39.768;2.722;2024-02-21T12:21:48;102237.81;;;17.19;64.83
54248;BME280;40161;39.768;2.722;2024-02-21T12:24:22;102205.47;;;17.00;65.00
54248;BME280;40161;39.768;2.722;2024-02-21T12:26:51;102215.91;;;17.10;64.62
54248;BME280;40161;39.768;2.722;2024-02-21T12:29:24;102228.75;;;16.95;67.26
54248;BME280;40161;39.768;2.722;2024-02-21T12:31:54;102239.50;;;17.27;65.55
54248;BME280;40161;39.768;2.722;2024-02-21T12:34:20;102228.47;;;17.00;64.50
54248;BME280;40161;39.768;2.722;2024-02-21T12:36:47;102186.75;;;16.93;62.39
54248;BME280;40161;39.768;2.722;2024-02-21T12:39:13;102214.69;;;17.38;62.30
54248;BME280;40161;39.768;2.722;2024-02-21T12:41:39;102202.03;;;17.40;61.35
54248;BME280;40161;39.768;2.722;2024-02-21T12:44:06;102170.13;;;17.23;59.60
54248;BME280;40161;39.768;2.722;2024-02-21T12:46:33;102178.91;;;17.29;59.55
54248;BME280;40161;39.768;2.722;2024-02-21T12:48:59;102123.47;;;17.02;57.38
54248;BME280;40161;39.768;2.722;2024-02-21T12:51:25;102168.75;;;17.40;55.44
54248;BME280;40161;39.768;2.722;2024-02-21T12:53:50;102110.22;;;16.89;56.54
54248;BME280;40161;39.768;2.722;2024-02-21T12:56:16;102160.31;;;17.33;55.50
54248;BME280;40161;39.768;2.722;2024-02-21T12:58:42;102151.59;;;17.31;53.98
54248;BME280;40161;39.768;2.722;2024-02-21T13:01:08;102155.00;;;17.17;54.46